Lafayette, NJ

8:26 AM EDT on October 20, 2014 (GMT -0400)
Frankford TWP | Change Station
CLOSE
Current Station
Personal Weather Station
Location: Augusta, NJ
Elevation: 506 ft
Nearby Weather Stations

Elev 506 ft 41.15 °N, 74.68 °W | Updated 20 seconds ago

Partly Cloudy
Partly Cloudy
31.8 °F
Feels Like 32 °F
N
0.0
Wind Variable Wind from North
Gusts 0.0 mph

Today
High -- | Low -- °F
--% Chance of Precip.
Yesterday
High -- | Low -- °F
Precip. -- in
7:15 AM 6:10 PM
Waning Crescent, 11% visible
Pressure 30.09 in
Visibility 10.0 miles
Clouds Clear
Windchill 32 °F
Dew Point 30 °F
Humidity 92%
Rainfall 0.00 in
Snow Depth Not available.
UV 10.0 out of 12
Pollen 1.10 out of 12
Air Quality Not available.
Flu Activity Sporadic
METAR KFWN 201153Z AUTO 00000KT 10SM CLR 01/M01 A3008 RMK AO2 SLP190 T00061011 10022 20000 53001

More Conditions Fewer Conditions

Pressure 30.09 in
Visibility 10.0 miles
Clouds Clear
Windchill 32 °F
Dew Point 30 °F
Humidity 92%
Rainfall 0.00 in
Snow Depth Not available.
UV 10.0 out of 12
Pollen 1.10 out of 12
Air Quality Not available.
Flu Activity Sporadic
METAR KFWN 201153Z AUTO 00000KT 10SM CLR 01/M01 A3008 RMK AO2 SLP190 T00061011 10022 20000 53001

More Conditions Fewer Conditions

10-Day Weather Forecast

Almanac

Astronomy

Oct. 20, 2014 Rise Set
Actual Time 7:15 AM EDT 6:10 PM EDT
Civil Twilight 6:47 AM EDT 6:38 PM EDT
Nautical Twilight 6:15 AM EDT 7:10 PM EDT
Astronomical Twilight 5:43 AM EDT 7:42 PM EDT
Moon 4:00 AM EDT 4:33 PM EDT
Length of Visible Light 11h 50m
Length of Day
10h 54m
Waning Crescent, 11% of the Moon is Illuminated
Today
Waning Crescent
Oct 23
New
Oct 30
First Quarter
Nov 6
Full
Nov 14
Last Quarter

Today's Extremes

State Highs State Lows

Community

WunderPhotos

Upload Photos

1,763,349 photos uploaded!

WunderBlogs® & News

Nearby

Snow Depth

Station Depth Elevation
No new snow has been reported.

Earthquake Activity

City Distance Mag. Time & Date
No recent earthquake activity has been reported nearby.
Minimum magnitude displayed is 2.5.

Coastal Water Temperatures

Place Temperature
No Stations Reporting

Nearby Weather Stations